Time;durP1;ratioP1;P1;durP2;ratioP2;P2;SDS_P1;SDS_P2;PMS_P1;PMS_P2;Temp;Humidity;BMP_temperature;BMP_pressure;BME280_temperature;BME280_humidity;BME280_pressure;Samples;Min_cycle;Max_cycle;Signal;HPM_P1;HPM_P2
2022/01/21 00:01:47;;;;;;;0.00;0.00;;;3.00;99.90;;;;;;5066682;28;20191;-78
2022/01/21 00:04:13;;;;;;;0.10;0.10;;;2.90;99.90;;;;;;5065144;28;20242;-78
2022/01/21 00:06:39;;;;;;;0.10;0.10;;;2.90;99.90;;;;;;5064953;28;20261;-78
2022/01/21 00:09:06;;;;;;;0.10;0.10;;;2.90;99.90;;;;;;5065520;28;20485;-78
2022/01/21 00:11:31;;;;;;;0.10;0.10;;;3.00;99.90;;;;;;5065537;28;20190;-78
2022/01/21 00:13:59;;;;;;;0.10;0.10;;;3.00;99.90;;;;;;5063694;28;20187;-78
2022/01/21 00:16:26;;;;;;;1.10;1.03;;;3.00;99.90;;;;;;5062950;28;20282;-78
2022/01/21 00:18:58;;;;;;;0.20;0.20;;;2.90;99.90;;;;;;5064389;28;20219;-78
2022/01/21 00:32:21;;;;;;;0.20;0.20;;;2.60;99.90;;;;;;5065069;28;20181;-78
2022/01/21 00:34:47;;;;;;;0.17;0.17;;;2.50;99.90;;;;;;5065191;28;20185;-78
2022/01/21 00:37:13;;;;;;;0.00;0.00;;;2.40;99.90;;;;;;5063467;28;20198;-78
2022/01/21 00:39:39;;;;;;;0.10;0.10;;;2.40;99.90;;;;;;5064376;28;20211;-78
2022/01/21 00:42:15;;;;;;;0.13;0.13;;;2.40;99.90;;;;;;5064010;28;20565;-78
2022/01/21 00:44:41;;;;;;;0.10;0.10;;;2.40;99.90;;;;;;5066124;28;20165;-78
2022/01/21 00:47:07;;;;;;;0.20;0.20;;;2.40;99.90;;;;;;5065602;28;20175;-78
2022/01/21 00:49:33;;;;;;;0.10;0.10;;;2.50;99.90;;;;;;5064753;28;20280;-78
2022/01/21 00:51:59;;;;;;;0.70;0.30;;;2.60;99.90;;;;;;5065193;28;20709;-79
2022/01/21 00:54:24;;;;;;;0.07;0.07;;;2.70;99.90;;;;;;5065821;28;20186;-79
2022/01/21 00:56:50;;;;;;;0.50;0.50;;;2.70;99.90;;;;;;5063671;28;20232;-79
2022/01/21 00:59:15;;;;;;;0.20;0.20;;;2.80;99.90;;;;;;5065120;28;20300;-78
2022/01/21 01:01:41;;;;;;;0.30;0.30;;;2.80;99.90;;;;;;5063470;28;20179;-78
2022/01/21 01:04:08;;;;;;;0.17;0.17;;;2.80;99.90;;;;;;5063466;28;20587;-80
2022/01/21 01:06:33;;;;;;;0.97;0.30;;;2.70;99.90;;;;;;5064855;28;20185;-79
2022/01/21 01:08:59;;;;;;;1.90;1.07;;;2.60;99.90;;;;;;5065466;28;20202;-78
2022/01/21 01:22:12;;;;;;;0.77;0.10;;;2.40;99.90;;;;;;5064465;28;20691;-79
2022/01/21 01:30:27;;;;;;;0.10;0.10;;;2.30;99.90;;;;;;5004230;28;20197;-79
2022/01/21 01:32:58;;;;;;;0.10;0.10;;;2.20;99.90;;;;;;5054350;28;20214;-79
2022/01/21 01:35:26;;;;;;;0.10;0.10;;;2.20;99.90;;;;;;5064983;28;20259;-79
2022/01/21 01:40:43;;;;;;;0.50;0.50;;;2.20;99.90;;;;;;5065711;28;21049;-79
2022/01/21 01:50:53;;;;;;;0.20;0.20;;;2.30;99.90;;;;;;5064074;28;20640;-79
2022/01/21 01:53:24;;;;;;;0.20;0.20;;;2.40;99.90;;;;;;5064397;28;20184;-79
2022/01/21 01:55:50;;;;;;;0.20;0.20;;;2.30;99.90;;;;;;5064180;28;20199;-79
2022/01/21 01:58:16;;;;;;;0.10;0.10;;;2.40;99.90;;;;;;5062222;28;20819;-79
2022/01/21 02:00:42;;;;;;;0.03;0.03;;;2.30;99.90;;;;;;5066450;28;20183;-79
2022/01/21 02:03:11;;;;;;;0.30;0.20;;;2.30;99.90;;;;;;5064106;28;20238;-79
2022/01/21 02:05:36;;;;;;;0.23;0.23;;;2.20;99.90;;;;;;5063184;28;20219;-79
2022/01/21 02:08:02;;;;;;;0.10;0.10;;;2.20;99.90;;;;;;5063608;28;20223;-79
2022/01/21 02:10:28;;;;;;;0.30;0.20;;;2.10;99.90;;;;;;5064768;28;20187;-79
2022/01/21 02:13:04;;;;;;;0.23;0.23;;;2.20;99.90;;;;;;5065391;28;20185;-79
2022/01/21 02:15:34;;;;;;;0.97;0.40;;;2.10;99.90;;;;;;5064489;28;20316;-79
2022/01/21 02:23:28;;;;;;;0.20;0.20;;;2.10;99.90;;;;;;5065236;28;20210;-79
2022/01/21 02:25:53;;;;;;;0.13;0.13;;;2.10;99.90;;;;;;5065392;28;20182;-79
2022/01/21 02:28:19;;;;;;;0.10;0.10;;;2.10;99.90;;;;;;5066070;28;20202;-78
2022/01/21 02:30:57;;;;;;;0.10;0.10;;;2.00;99.90;;;;;;5064923;28;20183;-79
2022/01/21 02:33:24;;;;;;;0.03;0.03;;;2.00;99.90;;;;;;5064545;28;20238;-79
2022/01/21 02:35:50;;;;;;;0.20;0.20;;;2.00;99.90;;;;;;5062906;28;20185;-79
2022/01/21 02:38:16;;;;;;;0.27;0.27;;;2.10;99.90;;;;;;5064957;28;20210;-79
2022/01/21 02:40:44;;;;;;;0.13;0.13;;;2.00;99.90;;;;;;5067326;28;20192;-79
2022/01/21 02:43:11;;;;;;;0.10;0.10;;;2.00;99.90;;;;;;5082419;28;20217;-79
2022/01/21 02:45:39;;;;;;;0.50;0.40;;;2.00;99.90;;;;;;5079526;28;20192;-79
2022/01/21 02:48:07;;;;;;;2.37;1.23;;;2.10;99.90;;;;;;5081483;28;20208;-79
2022/01/21 02:50:33;;;;;;;0.53;0.47;;;2.10;99.90;;;;;;5072911;28;20170;-79
2022/01/21 02:53:24;;;;;;;0.20;0.20;;;2.20;99.90;;;;;;5067889;28;20541;-80
2022/01/21 02:55:50;;;;;;;0.20;0.20;;;2.30;99.90;;;;;;5068101;28;20178;-80
2022/01/21 02:58:15;;;;;;;0.70;0.70;;;2.30;99.90;;;;;;5066675;28;20205;-79
2022/01/21 03:00:41;;;;;;;0.10;0.10;;;2.30;99.90;;;;;;5068334;28;20659;-79
2022/01/21 03:03:07;;;;;;;0.10;0.10;;;2.30;99.90;;;;;;5067453;28;20208;-79
2022/01/21 03:05:35;;;;;;;0.10;0.10;;;2.30;99.90;;;;;;5067379;28;20594;-80
2022/01/21 03:08:01;;;;;;;0.10;0.10;;;2.30;99.90;;;;;;5067047;28;20216;-80
2022/01/21 03:10:26;;;;;;;2.03;0.43;;;2.40;99.90;;;;;;5065692;28;20198;-79
2022/01/21 03:12:53;;;;;;;0.10;0.10;;;2.40;99.90;;;;;;5068109;28;20658;-79
2022/01/21 03:15:18;;;;;;;0.10;0.10;;;2.40;99.90;;;;;;5065605;28;20209;-79
2022/01/21 03:17:44;;;;;;;0.57;0.30;;;2.50;99.90;;;;;;5067124;28;21202;-79
2022/01/21 03:20:10;;;;;;;0.30;0.30;;;2.50;99.90;;;;;;5066089;28;20202;-80
2022/01/21 03:22:36;;;;;;;0.10;0.10;;;2.40;99.90;;;;;;5066899;28;20253;-79
2022/01/21 03:25:07;;;;;;;0.20;0.20;;;2.50;99.90;;;;;;5065109;28;20235;-79
2022/01/21 03:27:33;;;;;;;0.30;0.30;;;2.50;99.90;;;;;;5066407;28;20218;-80
2022/01/21 03:29:58;;;;;;;0.57;0.47;;;2.50;99.90;;;;;;5063563;28;20201;-79
2022/01/21 03:32:25;;;;;;;0.93;0.70;;;2.50;99.90;;;;;;5065623;28;20899;-80
2022/01/21 03:34:51;;;;;;;0.10;0.10;;;2.60;99.90;;;;;;5066973;28;20189;-80
2022/01/21 03:37:17;;;;;;;0.77;0.20;;;2.60;99.90;;;;;;5066202;28;20198;-79
2022/01/21 03:39:42;;;;;;;0.10;0.10;;;2.50;99.90;;;;;;5067043;28;20240;-79
2022/01/21 03:42:08;;;;;;;1.50;1.50;;;2.40;99.90;;;;;;5065213;28;20206;-79
2022/01/21 03:44:33;;;;;;;0.73;0.30;;;2.30;99.90;;;;;;5064647;28;20593;-79
2022/01/21 03:46:59;;;;;;;0.20;0.20;;;2.30;99.90;;;;;;5055296;28;20295;-79
2022/01/21 03:49:25;;;;;;;0.30;0.30;;;2.30;99.90;;;;;;5067378;28;20214;-80
2022/01/21 03:51:51;;;;;;;0.10;0.10;;;2.20;99.90;;;;;;5066939;28;20178;-79
2022/01/21 03:54:17;;;;;;;0.17;0.17;;;2.20;99.90;;;;;;5067975;28;20196;-80
2022/01/21 03:56:42;;;;;;;0.10;0.10;;;2.20;99.90;;;;;;5065850;28;20208;-80
2022/01/21 03:59:08;;;;;;;0.33;0.33;;;2.20;99.90;;;;;;5064933;28;21124;-79
2022/01/21 04:01:33;;;;;;;0.00;0.00;;;2.10;99.90;;;;;;5073047;28;20194;-80
2022/01/21 04:03:59;;;;;;;0.17;0.13;;;2.10;99.90;;;;;;5062107;28;20210;-79
2022/01/21 04:06:25;;;;;;;0.10;0.10;;;2.00;99.90;;;;;;5064093;28;20213;-79
2022/01/21 04:08:50;;;;;;;0.10;0.10;;;2.00;99.90;;;;;;5065495;28;20201;-79
2022/01/21 04:11:16;;;;;;;0.20;0.20;;;2.00;99.90;;;;;;5063584;28;20221;-79
2022/01/21 04:13:43;;;;;;;0.10;0.10;;;2.00;99.90;;;;;;5066488;28;20193;-79
2022/01/21 04:16:08;;;;;;;0.20;0.20;;;2.00;99.90;;;;;;5064219;28;20186;-79
2022/01/21 04:18:34;;;;;;;0.20;0.20;;;2.00;99.90;;;;;;5065038;28;20568;-79
2022/01/21 04:21:00;;;;;;;0.10;0.10;;;2.00;99.90;;;;;;5067111;28;20224;-79
2022/01/21 04:23:25;;;;;;;0.07;0.07;;;2.10;99.90;;;;;;5063846;28;20222;-80
2022/01/21 04:25:52;;;;;;;0.10;0.10;;;2.20;99.90;;;;;;5065437;28;20267;-80
2022/01/21 04:28:18;;;;;;;1.30;0.50;;;2.20;99.90;;;;;;5061172;28;20229;-79
2022/01/21 04:30:44;;;;;;;2.63;0.50;;;2.30;99.90;;;;;;5067411;28;20177;-79
2022/01/21 04:33:09;;;;;;;0.63;0.30;;;2.30;99.90;;;;;;5063792;28;20190;-79
2022/01/21 04:35:36;;;;;;;0.10;0.10;;;2.30;99.90;;;;;;5066487;28;20636;-79
2022/01/21 04:38:05;;;;;;;0.10;0.10;;;2.40;99.90;;;;;;5065417;28;20178;-79
2022/01/21 04:40:35;;;;;;;3.20;0.30;;;2.50;99.90;;;;;;5065993;28;20177;-80
2022/01/21 04:48:31;;;;;;;0.20;0.20;;;2.50;99.90;;;;;;5061703;28;20234;-79
2022/01/21 04:51:00;;;;;;;0.27;0.27;;;2.50;99.90;;;;;;5064485;28;21162;-79
2022/01/21 04:53:28;;;;;;;0.20;0.20;;;2.30;99.90;;;;;;5072109;28;20650;-79
2022/01/21 04:55:54;;;;;;;0.20;0.20;;;2.40;99.90;;;;;;5062143;28;20191;-79
2022/01/21 04:58:21;;;;;;;0.33;0.33;;;2.40;99.90;;;;;;5063741;28;20639;-79
2022/01/21 05:00:46;;;;;;;0.10;0.10;;;2.30;99.90;;;;;;5065908;28;20182;-79
2022/01/21 05:03:13;;;;;;;0.43;0.43;;;2.30;99.90;;;;;;5060487;28;20208;-80
2022/01/21 05:05:39;;;;;;;0.30;0.30;;;2.30;99.90;;;;;;5065437;28;21086;-79
2022/01/21 05:08:09;;;;;;;0.20;0.10;;;2.50;99.90;;;;;;5063190;28;20205;-79
2022/01/21 05:10:35;;;;;;;0.30;0.30;;;2.70;99.90;;;;;;5065542;28;20178;-79
2022/01/21 05:13:01;;;;;;;0.20;0.20;;;2.70;99.90;;;;;;5062249;28;20192;-79
2022/01/21 05:15:46;;;;;;;0.20;0.20;;;2.70;99.90;;;;;;5059941;28;20652;-79
2022/01/21 05:18:11;;;;;;;0.23;0.23;;;2.60;99.90;;;;;;5064157;28;20259;-81
2022/01/21 05:20:37;;;;;;;0.40;0.40;;;2.70;99.90;;;;;;5063286;28;20186;-78
2022/01/21 05:23:02;;;;;;;0.33;0.33;;;2.80;99.90;;;;;;5064629;28;20232;-79
2022/01/21 05:25:28;;;;;;;0.40;0.40;;;2.80;99.90;;;;;;5063092;28;20268;-78
2022/01/21 05:27:55;;;;;;;0.10;0.10;;;2.90;99.90;;;;;;5063451;28;20235;-79
2022/01/21 05:30:21;;;;;;;0.40;0.30;;;2.90;99.90;;;;;;5060935;28;20624;-78
2022/01/21 05:32:47;;;;;;;0.13;0.13;;;2.90;99.90;;;;;;5062241;28;20211;-79
2022/01/21 05:35:13;;;;;;;0.10;0.10;;;3.00;99.90;;;;;;5062968;28;20716;-78
2022/01/21 05:37:39;;;;;;;0.40;0.30;;;2.90;99.90;;;;;;5063675;28;20180;-79
2022/01/21 05:40:07;;;;;;;0.10;0.10;;;3.00;99.90;;;;;;5064807;28;20259;-78
2022/01/21 05:42:35;;;;;;;0.37;0.37;;;3.00;99.90;;;;;;5064769;28;20206;-78
2022/01/21 05:47:28;;;;;;;1.17;1.17;;;3.00;99.90;;;;;;5061792;28;20642;-78
2022/01/21 05:49:53;;;;;;;1.00;0.87;;;3.00;99.90;;;;;;5063242;28;20285;-78
2022/01/21 05:52:20;;;;;;;0.63;0.20;;;3.10;99.90;;;;;;5060602;28;20273;-79
2022/01/21 05:54:46;;;;;;;0.13;0.13;;;3.10;99.90;;;;;;5064473;28;20217;-78
2022/01/21 05:57:16;;;;;;;0.90;0.87;;;3.20;99.90;;;;;;5075634;28;20266;-78
2022/01/21 05:59:42;;;;;;;3.83;0.47;;;3.20;99.90;;;;;;5067093;28;20226;-81
2022/01/21 06:02:10;;;;;;;3.10;0.40;;;3.00;99.90;;;;;;5069222;28;20189;-78
2022/01/21 06:04:38;;;;;;;0.20;0.20;;;3.00;99.90;;;;;;5062551;28;20193;-79
2022/01/21 06:07:05;;;;;;;0.10;0.10;;;3.00;99.90;;;;;;5063384;28;20219;-79
2022/01/21 06:09:31;;;;;;;0.10;0.10;;;2.90;99.90;;;;;;5062901;28;20264;-79
2022/01/21 06:11:57;;;;;;;0.20;0.20;;;2.80;99.90;;;;;;5062570;28;20647;-79
2022/01/21 06:14:24;;;;;;;1.10;0.20;;;2.70;99.90;;;;;;5064510;28;20213;-78
2022/01/21 06:16:50;;;;;;;0.50;0.50;;;2.70;99.90;;;;;;5064112;28;20186;-77
2022/01/21 06:19:16;;;;;;;0.83;0.30;;;2.80;99.90;;;;;;5065706;28;20221;-78
2022/01/21 06:21:41;;;;;;;0.10;0.10;;;2.80;99.90;;;;;;5064529;28;20186;-78
2022/01/21 06:24:07;;;;;;;1.40;0.53;;;2.90;99.90;;;;;;5064317;28;20207;-78
2022/01/21 06:26:34;;;;;;;0.40;0.40;;;2.90;99.90;;;;;;5061921;28;20185;-77
2022/01/21 06:29:00;;;;;;;0.70;0.53;;;2.90;99.90;;;;;;5063871;28;20798;-78
2022/01/21 06:31:26;;;;;;;0.10;0.10;;;2.80;99.90;;;;;;5065600;28;20175;-78
2022/01/21 06:33:51;;;;;;;0.93;0.43;;;2.70;99.90;;;;;;5068742;28;20195;-78
2022/01/21 06:36:17;;;;;;;3.03;0.60;;;2.40;99.90;;;;;;5065382;28;20203;-78
2022/01/21 06:38:42;;;;;;;0.77;0.37;;;2.20;99.90;;;;;;5066227;28;20219;-78
2022/01/21 06:41:08;;;;;;;0.70;0.70;;;2.20;99.90;;;;;;5065910;28;20213;-79
2022/01/21 06:43:34;;;;;;;0.10;0.10;;;2.30;99.90;;;;;;5067065;28;20292;-79
2022/01/21 06:45:59;;;;;;;1.20;1.10;;;2.40;99.90;;;;;;5067148;28;20182;-77
2022/01/21 06:48:25;;;;;;;0.20;0.20;;;2.40;99.90;;;;;;5063449;28;20208;-80
2022/01/21 06:50:51;;;;;;;0.20;0.20;;;2.50;99.90;;;;;;5066199;28;20178;-79
2022/01/21 06:53:16;;;;;;;0.20;0.20;;;2.50;99.90;;;;;;5067715;28;20195;-79
2022/01/21 06:55:42;;;;;;;0.20;0.20;;;2.50;99.90;;;;;;5064944;28;20201;-80
2022/01/21 06:58:08;;;;;;;0.20;0.20;;;2.50;99.90;;;;;;5065187;28;20183;-79
2022/01/21 07:00:34;;;;;;;0.20;0.20;;;2.60;99.90;;;;;;5065684;28;20268;-80
2022/01/21 07:02:59;;;;;;;1.33;0.57;;;2.60;99.90;;;;;;5065235;28;20766;-79
2022/01/21 07:05:25;;;;;;;0.67;0.60;;;2.70;99.90;;;;;;5062409;28;20560;-79
2022/01/21 07:07:51;;;;;;;5.50;1.70;;;2.70;99.90;;;;;;5063596;28;20531;-79
2022/01/21 07:10:17;;;;;;;0.30;0.30;;;2.70;99.90;;;;;;5066804;28;20182;-79
2022/01/21 07:12:44;;;;;;;1.17;1.03;;;2.80;99.90;;;;;;5064921;28;20178;-78
2022/01/21 07:15:11;;;;;;;0.10;0.10;;;2.60;99.90;;;;;;5066228;28;20262;-79
2022/01/21 07:17:37;;;;;;;0.17;0.17;;;2.70;99.90;;;;;;5063861;28;20184;-79
2022/01/21 07:20:04;;;;;;;0.30;0.30;;;2.70;99.90;;;;;;5065274;28;20203;-79
2022/01/21 07:22:31;;;;;;;0.57;0.50;;;2.70;99.90;;;;;;5066143;28;20669;-79
2022/01/21 07:24:57;;;;;;;0.20;0.20;;;2.90;99.90;;;;;;5067962;28;20170;-79
2022/01/21 07:27:22;;;;;;;1.43;0.43;;;3.00;99.90;;;;;;5067142;28;20527;-79
2022/01/21 07:29:48;;;;;;;0.67;0.67;;;3.10;99.90;;;;;;5066155;28;20244;-79
2022/01/21 07:32:14;;;;;;;0.20;0.20;;;3.10;99.90;;;;;;5065430;28;20202;-78
2022/01/21 07:34:40;;;;;;;0.20;0.20;;;3.10;99.90;;;;;;5065085;28;20176;-79
2022/01/21 07:37:05;;;;;;;0.20;0.20;;;3.20;99.90;;;;;;5066477;28;20178;-79
2022/01/21 07:39:31;;;;;;;0.27;0.27;;;3.20;99.90;;;;;;5058626;28;20205;-76
2022/01/21 07:41:57;;;;;;;0.10;0.10;;;3.30;99.90;;;;;;5065244;28;20764;-76
2022/01/21 07:44:22;;;;;;;0.20;0.20;;;3.30;99.90;;;;;;5063825;28;20213;-77
2022/01/21 07:46:48;;;;;;;0.13;0.13;;;3.40;99.90;;;;;;5062994;28;20182;-77
2022/01/21 07:49:15;;;;;;;0.17;0.17;;;3.40;99.90;;;;;;5064752;28;20208;-77
2022/01/21 07:51:41;;;;;;;0.20;0.20;;;3.40;99.90;;;;;;5064322;28;20233;-76
2022/01/21 07:54:07;;;;;;;1.33;1.23;;;3.30;99.90;;;;;;5061555;28;20230;-78
2022/01/21 07:56:34;;;;;;;0.43;0.43;;;3.20;99.90;;;;;;5061011;28;20600;-80
2022/01/21 07:59:02;;;;;;;0.50;0.27;;;3.20;99.90;;;;;;5062824;28;20221;-78
2022/01/21 08:01:27;;;;;;;0.70;0.70;;;3.20;99.90;;;;;;5063254;28;20195;-78
2022/01/21 08:03:53;;;;;;;0.40;0.30;;;3.20;99.90;;;;;;5064281;28;20256;-78
2022/01/21 08:06:18;;;;;;;0.20;0.20;;;3.40;99.90;;;;;;5062026;28;20575;-78
2022/01/21 08:08:44;;;;;;;3.90;1.40;;;3.50;99.90;;;;;;5065011;28;20557;-78
2022/01/21 08:11:10;;;;;;;0.60;0.50;;;3.50;99.90;;;;;;5065727;28;20188;-78
2022/01/21 08:13:35;;;;;;;0.57;0.57;;;3.60;99.90;;;;;;5063975;28;20594;-78
2022/01/21 08:16:01;;;;;;;0.10;0.10;;;3.60;99.90;;;;;;5065490;28;20186;-78
2022/01/21 08:18:27;;;;;;;0.40;0.40;;;3.60;99.90;;;;;;5063477;28;20785;-78
2022/01/21 08:20:52;;;;;;;0.23;0.23;;;3.70;99.90;;;;;;5065103;28;20186;-78
2022/01/21 08:23:18;;;;;;;0.57;0.53;;;3.70;99.90;;;;;;5065887;28;20267;-78
2022/01/21 08:25:44;;;;;;;0.57;0.57;;;3.80;99.90;;;;;;5063581;28;20183;-78
2022/01/21 08:28:10;;;;;;;0.33;0.30;;;3.90;99.90;;;;;;5065242;28;20255;-78
2022/01/21 08:30:36;;;;;;;0.20;0.20;;;3.90;99.90;;;;;;5065516;28;20180;-77
2022/01/21 08:33:02;;;;;;;4.20;0.30;;;4.00;99.90;;;;;;5063597;28;20198;-78
2022/01/21 08:35:28;;;;;;;0.40;0.40;;;4.10;99.90;;;;;;5063878;28;20192;-78
2022/01/21 08:37:54;;;;;;;0.87;0.30;;;4.20;99.90;;;;;;5062149;28;20183;-78
2022/01/21 08:40:21;;;;;;;0.30;0.30;;;4.40;99.90;;;;;;5065782;28;20194;-78
2022/01/21 08:42:47;;;;;;;0.30;0.30;;;4.40;99.90;;;;;;5065391;28;20252;-78
2022/01/21 08:45:13;;;;;;;0.40;0.40;;;4.50;99.90;;;;;;5063757;28;20227;-78
2022/01/21 08:47:40;;;;;;;0.40;0.40;;;4.50;99.90;;;;;;5066116;28;20180;-80
2022/01/21 08:50:09;;;;;;;0.60;0.40;;;4.60;99.90;;;;;;5062846;28;20923;-78
2022/01/21 08:52:40;;;;;;;0.20;0.20;;;4.80;99.90;;;;;;5066676;28;20196;-78
2022/01/21 08:55:09;;;;;;;0.20;0.20;;;4.80;99.90;;;;;;5066227;28;20605;-78
2022/01/21 08:57:36;;;;;;;0.80;0.50;;;4.80;99.90;;;;;;5068251;28;20264;-78
2022/01/21 09:00:06;;;;;;;0.27;0.27;;;4.70;99.90;;;;;;5061882;28;20225;-78
2022/01/21 09:02:31;;;;;;;0.30;0.30;;;4.70;99.90;;;;;;5065031;28;20214;-78
2022/01/21 09:04:57;;;;;;;0.10;0.10;;;4.60;99.90;;;;;;5063670;28;20190;-79
2022/01/21 09:07:22;;;;;;;0.17;0.17;;;4.60;99.90;;;;;;5065122;28;20649;-78
2022/01/21 09:09:48;;;;;;;0.57;0.37;;;4.70;99.90;;;;;;5063506;28;20200;-78
2022/01/21 09:12:13;;;;;;;2.17;1.60;;;4.70;99.90;;;;;;5062655;28;20989;-79
2022/01/21 09:14:39;;;;;;;0.20;0.20;;;4.50;99.90;;;;;;5063975;28;20185;-79
2022/01/21 09:17:04;;;;;;;0.13;0.13;;;4.60;99.90;;;;;;5063687;28;20285;-79
2022/01/21 09:19:32;;;;;;;0.30;0.20;;;4.70;99.90;;;;;;5063894;28;20643;-79
2022/01/21 09:21:58;;;;;;;0.30;0.30;;;4.90;99.90;;;;;;5065153;28;20569;-79
2022/01/21 09:24:23;;;;;;;0.50;0.50;;;4.90;99.90;;;;;;5064267;28;20259;-79
2022/01/21 09:26:49;;;;;;;0.77;0.63;;;4.90;99.90;;;;;;5064302;28;20862;-80
2022/01/21 09:29:15;;;;;;;0.30;0.30;;;4.90;99.90;;;;;;5062771;28;20211;-79
2022/01/21 09:31:41;;;;;;;0.23;0.23;;;4.80;99.90;;;;;;5062533;28;20183;-79
2022/01/21 09:34:07;;;;;;;0.50;0.40;;;4.40;99.90;;;;;;5062626;28;20194;-79
2022/01/21 09:36:33;;;;;;;0.60;0.40;;;4.50;99.90;;;;;;5061132;28;20214;-79
2022/01/21 09:39:00;;;;;;;0.10;0.10;;;4.70;99.90;;;;;;5062624;28;20731;-80
2022/01/21 09:41:28;;;;;;;0.77;0.43;;;4.70;99.90;;;;;;5063755;28;20620;-80
2022/01/21 09:43:54;;;;;;;1.47;1.40;;;4.90;99.90;;;;;;5059722;28;20233;-79
2022/01/21 09:46:27;;;;;;;0.43;0.43;;;4.90;99.90;;;;;;5064811;28;20188;-79
2022/01/21 09:49:06;;;;;;;1.03;0.47;;;5.00;99.90;;;;;;5063029;28;20207;-79
2022/01/21 09:51:32;;;;;;;0.77;0.63;;;5.00;99.90;;;;;;5063932;28;20183;-79
2022/01/21 09:54:01;;;;;;;0.30;0.30;;;5.30;99.90;;;;;;5064249;28;20184;-80
2022/01/21 09:56:27;;;;;;;0.50;0.43;;;5.50;99.90;;;;;;5058549;28;20185;-79
2022/01/21 09:58:54;;;;;;;0.33;0.33;;;5.80;99.90;;;;;;5065019;28;20216;-80
2022/01/21 10:01:19;;;;;;;0.33;0.30;;;6.20;99.90;;;;;;5066225;28;20188;-79
2022/01/21 10:03:45;;;;;;;0.30;0.30;;;6.00;99.90;;;;;;5066412;28;20211;-80
2022/01/21 10:06:12;;;;;;;0.10;0.10;;;6.30;99.90;;;;;;5067907;28;20215;-80
2022/01/21 10:08:41;;;;;;;0.20;0.20;;;6.30;99.90;;;;;;5068320;28;20242;-79
2022/01/21 10:11:08;;;;;;;0.53;0.40;;;6.10;99.90;;;;;;5065002;28;20234;-80
2022/01/21 10:13:35;;;;;;;0.10;0.10;;;5.70;99.90;;;;;;5064177;28;20177;-80
2022/01/21 10:16:03;;;;;;;0.50;0.43;;;5.80;99.90;;;;;;5067286;28;20176;-80
2022/01/21 10:18:29;;;;;;;0.23;0.23;;;5.70;99.90;;;;;;5064303;28;20211;-79
2022/01/21 10:21:07;;;;;;;0.17;0.17;;;5.50;99.90;;;;;;5065540;28;20181;-78
2022/01/21 10:23:42;;;;;;;0.10;0.10;;;5.70;99.90;;;;;;5066237;28;20696;-78
2022/01/21 10:26:10;;;;;;;1.23;0.37;;;5.90;99.90;;;;;;5066655;28;20679;-78
2022/01/21 10:28:38;;;;;;;0.40;0.40;;;6.60;99.90;;;;;;5061706;28;20244;-78
2022/01/21 10:31:12;;;;;;;0.60;0.60;;;6.90;99.90;;;;;;5064655;28;20193;-79
2022/01/21 10:33:53;;;;;;;1.00;0.70;;;7.80;99.90;;;;;;5065607;28;20237;-78
2022/01/21 10:36:26;;;;;;;0.53;0.47;;;7.50;99.90;;;;;;5072268;28;20184;-79
2022/01/21 10:38:57;;;;;;;0.20;0.20;;;7.00;99.90;;;;;;5064748;28;20208;-79
2022/01/21 10:41:30;;;;;;;0.50;0.50;;;6.90;99.90;;;;;;5066616;28;20178;-79
2022/01/21 10:44:14;;;;;;;0.33;0.33;;;6.40;99.90;;;;;;5064516;28;20247;-79
2022/01/21 10:46:42;;;;;;;0.40;0.40;;;6.10;99.90;;;;;;5065656;28;20177;-79
2022/01/21 10:49:13;;;;;;;0.13;0.13;;;6.60;99.90;;;;;;5067202;28;20194;-80
2022/01/21 10:51:49;;;;;;;0.30;0.30;;;6.90;99.90;;;;;;5067530;28;20280;-80
2022/01/21 10:54:18;;;;;;;1.20;0.70;;;7.00;99.90;;;;;;5066599;28;20204;-78
2022/01/21 10:57:02;;;;;;;0.53;0.50;;;6.60;99.90;;;;;;5066489;28;20173;-79
2022/01/21 11:00:07;;;;;;;0.67;0.40;;;6.70;99.90;;;;;;5061681;28;20291;-79
2022/01/21 11:02:54;;;;;;;0.40;0.40;;;6.80;99.90;;;;;;5026064;28;20211;-80
2022/01/21 11:05:27;;;;;;;0.87;0.67;;;6.70;99.90;;;;;;5064593;28;20190;-80
2022/01/21 11:08:02;;;;;;;0.83;0.83;;;6.50;99.90;;;;;;5068109;28;20219;-80
2022/01/21 11:10:37;;;;;;;1.80;0.57;;;6.80;99.90;;;;;;5074305;28;20671;-79
2022/01/21 11:13:23;;;;;;;0.10;0.10;;;6.60;99.90;;;;;;5067795;28;20177;-79
2022/01/21 11:15:57;;;;;;;0.10;0.10;;;6.60;99.90;;;;;;5066947;28;20264;-79
2022/01/21 11:18:25;;;;;;;0.10;0.10;;;6.50;99.90;;;;;;5063703;28;20283;-79
2022/01/21 11:20:57;;;;;;;0.47;0.40;;;6.60;99.90;;;;;;5064613;28;20242;-79
2022/01/21 11:23:27;;;;;;;0.50;0.50;;;6.50;99.90;;;;;;5067778;28;20193;-79
2022/01/21 11:25:58;;;;;;;0.67;0.67;;;6.10;99.90;;;;;;5066817;28;20715;-79
2022/01/21 11:28:35;;;;;;;0.20;0.20;;;5.60;99.90;;;;;;5066251;28;20670;-79
2022/01/21 11:31:01;;;;;;;0.10;0.10;;;5.80;99.90;;;;;;5064216;28;20192;-78
2022/01/21 11:33:27;;;;;;;1.13;1.13;;;5.90;99.90;;;;;;5065391;28;20713;-78
2022/01/21 11:35:53;;;;;;;1.07;0.97;;;6.00;99.90;;;;;;5065457;28;20216;-79
2022/01/21 11:38:22;;;;;;;0.67;0.67;;;5.90;99.90;;;;;;5066306;28;20227;-81
2022/01/21 11:40:49;;;;;;;0.23;0.20;;;6.40;99.90;;;;;;5067508;28;21090;-80
2022/01/21 11:43:16;;;;;;;0.10;0.10;;;6.50;99.90;;;;;;5066844;28;20208;-80
2022/01/21 11:51:00;;;;;;;0.13;0.13;;;6.90;99.90;;;;;;5068740;28;20173;-80
2022/01/21 11:53:53;;;;;;;0.17;0.17;;;7.00;99.90;;;;;;5059363;28;20654;-80
2022/01/21 11:56:45;;;;;;;0.20;0.20;;;6.80;99.90;;;;;;5066548;28;20193;-80
2022/01/21 11:59:58;;;;;;;0.67;0.67;;;6.60;99.90;;;;;;5066301;28;20249;-81
2022/01/21 12:02:19;;;;;;;0.20;0.20;;;6.30;99.90;;;;;;5066110;28;20254;-80
2022/01/21 12:04:54;;;;;;;0.27;0.27;;;6.40;99.90;;;;;;5066778;28;20461;-81
2022/01/21 12:07:41;;;;;;;0.20;0.20;;;6.40;99.90;;;;;;5067346;28;20669;-80
2022/01/21 12:10:31;;;;;;;0.20;0.20;;;6.30;99.90;;;;;;5067539;28;20615;-80
2022/01/21 12:13:09;;;;;;;0.20;0.20;;;6.40;99.90;;;;;;5067329;28;20181;-80
2022/01/21 12:15:44;;;;;;;0.40;0.40;;;5.90;99.90;;;;;;5064823;28;20199;-80
2022/01/21 12:21:00;;;;;;;0.60;0.60;;;5.70;99.90;;;;;;5067567;28;20244;-80
2022/01/21 12:23:28;;;;;;;0.20;0.20;;;5.80;99.90;;;;;;5063828;28;20212;-80
2022/01/21 12:26:09;;;;;;;0.40;0.13;;;6.10;99.90;;;;;;5065887;28;20192;-80
2022/01/21 12:28:57;;;;;;;0.30;0.30;;;6.60;99.90;;;;;;5067561;28;20684;-80
2022/01/21 12:31:47;;;;;;;0.13;0.13;;;6.60;99.90;;;;;;5060628;28;20557;-80
2022/01/21 12:34:15;;;;;;;0.10;0.10;;;6.40;99.90;;;;;;5063095;28;20185;-80
2022/01/21 12:37:08;;;;;;;0.10;0.10;;;6.30;99.90;;;;;;5065326;28;20181;-81
2022/01/21 12:39:48;;;;;;;0.10;0.10;;;6.40;99.90;;;;;;5065215;28;20295;-79
2022/01/21 12:42:20;;;;;;;0.40;0.40;;;6.30;99.90;;;;;;5067377;28;20185;-80
2022/01/21 12:44:51;;;;;;;0.10;0.10;;;6.30;99.90;;;;;;5072633;28;20185;-80
2022/01/21 12:47:36;;;;;;;0.20;0.20;;;6.30;99.90;;;;;;5066528;28;20191;-79
2022/01/21 12:50:14;;;;;;;0.47;0.47;;;6.20;99.90;;;;;;5066535;28;20197;-80
2022/01/21 12:53:25;;;;;;;0.13;0.13;;;6.30;99.90;;;;;;5067826;28;20557;-80
2022/01/21 12:58:20;;;;;;;0.10;0.10;;;6.50;99.90;;;;;;5069547;28;20226;-81
2022/01/21 13:00:47;;;;;;;0.10;0.10;;;6.60;99.90;;;;;;5067990;28;20662;-80
2022/01/21 13:03:23;;;;;;;0.40;0.40;;;6.70;99.90;;;;;;5069272;28;20224;-80
2022/01/21 13:06:07;;;;;;;0.10;0.10;;;6.70;99.90;;;;;;5067946;28;20672;-80
2022/01/21 13:08:50;;;;;;;0.47;0.47;;;6.60;99.90;;;;;;5067437;28;20216;-80
2022/01/21 13:11:24;;;;;;;0.10;0.10;;;6.50;99.90;;;;;;5066334;28;20177;-80
2022/01/21 13:17:11;;;;;;;0.17;0.17;;;6.40;99.90;;;;;;5064895;28;20230;-80
2022/01/21 13:19:54;;;;;;;0.30;0.30;;;6.10;99.90;;;;;;5064687;28;20556;-80
2022/01/21 13:22:29;;;;;;;0.20;0.20;;;6.10;99.90;;;;;;5060525;28;20315;-79
2022/01/21 13:25:10;;;;;;;0.37;0.10;;;6.10;99.90;;;;;;5062151;28;20582;-80
2022/01/21 13:27:44;;;;;;;0.63;0.63;;;6.10;99.90;;;;;;5066826;28;20177;-79
2022/01/21 13:30:13;;;;;;;0.30;0.30;;;6.10;99.90;;;;;;5066576;28;21019;-80
2022/01/21 13:32:39;;;;;;;0.43;0.20;;;6.00;99.90;;;;;;5062773;28;21004;-80
2022/01/21 13:35:09;;;;;;;0.20;0.20;;;6.10;99.90;;;;;;5059181;28;20185;-80
2022/01/21 13:37:36;;;;;;;0.10;0.10;;;6.10;99.90;;;;;;5058343;28;20254;-80
2022/01/21 13:40:04;;;;;;;0.30;0.30;;;6.10;99.90;;;;;;5059120;28;21972;-77
2022/01/21 13:42:31;;;;;;;0.20;0.20;;;6.10;99.90;;;;;;5061856;28;20184;-78
2022/01/21 13:45:01;;;;;;;0.60;0.47;;;6.20;99.90;;;;;;5062524;28;20264;-78
2022/01/21 13:47:36;;;;;;;0.60;0.50;;;6.40;99.90;;;;;;5063922;28;20177;-78
2022/01/21 13:50:17;;;;;;;0.30;0.30;;;6.50;99.90;;;;;;5064501;28;20192;-78
2022/01/21 13:52:51;;;;;;;0.87;0.47;;;6.50;99.90;;;;;;5063417;28;20711;-78
2022/01/21 13:55:43;;;;;;;0.10;0.10;;;6.40;99.90;;;;;;5062657;28;20176;-78
2022/01/21 13:58:10;;;;;;;0.10;0.10;;;6.50;99.90;;;;;;5062615;28;20286;-78
2022/01/21 14:00:38;;;;;;;0.20;0.20;;;6.50;99.90;;;;;;5063293;28;20185;-79
2022/01/21 14:03:28;;;;;;;0.10;0.10;;;6.30;99.90;;;;;;5063624;28;20568;-79
2022/01/21 14:05:56;;;;;;;0.20;0.20;;;6.10;99.90;;;;;;5064009;28;20524;-78
2022/01/21 14:08:27;;;;;;;0.23;0.23;;;5.90;99.90;;;;;;5063061;28;20191;-78
2022/01/21 14:10:58;;;;;;;0.27;0.27;;;5.60;99.90;;;;;;5063423;28;21251;-79
2022/01/21 14:13:26;;;;;;;0.60;0.60;;;5.80;99.90;;;;;;5064292;28;21153;-78